createdAt,value
2023-05-05T00:00:59.738Z,51.66
2023-05-05T00:03:27.753Z,52.10
2023-05-05T00:05:55.504Z,52.66
2023-05-05T00:08:23.218Z,51.91
2023-05-05T00:10:52.298Z,51.02
2023-05-05T00:13:21.052Z,49.90
2023-05-05T00:15:50.361Z,49.06
2023-05-05T00:18:18.513Z,48.32
2023-05-05T00:20:47.642Z,47.97
2023-05-05T00:23:17.011Z,48.14
2023-05-05T00:25:44.129Z,48.06
2023-05-05T00:28:11.610Z,48.21
2023-05-05T00:30:40.069Z,47.74
2023-05-05T00:33:07.476Z,48.37
2023-05-05T00:35:34.838Z,48.05
2023-05-05T00:38:03.163Z,47.99
2023-05-05T00:40:30.629Z,47.38
2023-05-05T00:42:59.658Z,47.54
2023-05-05T00:45:27.059Z,47.70
2023-05-05T00:48:00.453Z,47.46
2023-05-05T00:50:30.151Z,47.12
2023-05-05T00:53:00.900Z,47.16
2023-05-05T00:55:32.368Z,47.41
2023-05-05T00:58:01.126Z,46.92
2023-05-05T01:00:30.141Z,47.17
2023-05-05T01:02:58.101Z,47.04
2023-05-05T01:05:27.992Z,46.71
2023-05-05T01:08:02.994Z,47.29
2023-05-05T01:10:33.144Z,46.92
2023-05-05T01:13:26.477Z,47.36
2023-05-05T01:16:21.166Z,47.16
2023-05-05T01:18:52.057Z,47.45
2023-05-05T01:21:29.603Z,48.39
2023-05-05T01:24:18.822Z,48.99
2023-05-05T01:27:07.849Z,49.00
2023-05-05T01:29:47.775Z,48.83
2023-05-05T01:32:16.572Z,48.88
2023-05-05T01:34:58.601Z,48.79
2023-05-05T01:37:30.726Z,48.58
2023-05-05T01:40:04.112Z,48.43
2023-05-05T01:42:34.119Z,48.77
2023-05-05T01:45:04.983Z,48.53
2023-05-05T01:47:32.887Z,48.11
2023-05-05T01:50:02.479Z,47.91
2023-05-05T01:52:32.869Z,47.72
2023-05-05T01:55:02.177Z,47.76
2023-05-05T01:57:33.743Z,47.59
2023-05-05T02:00:06.315Z,47.36
2023-05-05T02:02:45.416Z,47.90
2023-05-05T02:05:13.830Z,48.04
2023-05-05T02:07:41.897Z,48.04
2023-05-05T02:10:31.191Z,48.06
2023-05-05T02:13:01.756Z,48.12
2023-05-05T02:15:30.863Z,47.38
2023-05-05T02:17:59.778Z,47.66
2023-05-05T02:20:30.460Z,47.20
2023-05-05T02:22:57.681Z,47.14
2023-05-05T02:25:32.639Z,46.74
2023-05-05T02:28:02.806Z,47.15
2023-05-05T02:30:35.383Z,46.79
2023-05-05T02:33:09.480Z,46.81
2023-05-05T02:35:41.414Z,46.71
2023-05-05T02:38:17.561Z,47.02
2023-05-05T02:40:50.548Z,46.37
2023-05-05T02:43:21.682Z,46.33
2023-05-05T02:45:49.104Z,46.21
2023-05-05T02:48:17.386Z,46.48
2023-05-05T02:50:44.611Z,46.75
2023-05-05T02:53:27.991Z,45.84
2023-05-05T02:56:14.301Z,45.86
2023-05-05T02:59:00.516Z,45.37
2023-05-05T03:01:51.457Z,45.53
2023-05-05T03:04:29.420Z,45.14
2023-05-05T03:07:01.352Z,45.22
2023-05-05T03:09:33.147Z,45.25
2023-05-05T03:12:07.374Z,45.30
2023-05-05T03:14:47.303Z,45.18
2023-05-05T03:17:18.744Z,44.92
2023-05-05T03:19:47.004Z,44.66
2023-05-05T03:22:14.224Z,44.70
2023-05-05T03:24:50.565Z,45.10
2023-05-05T03:27:20.807Z,45.87
2023-05-05T03:29:48.294Z,45.52
2023-05-05T03:32:16.297Z,45.87
2023-05-05T03:34:44.037Z,45.80
2023-05-05T03:37:11.169Z,45.64
2023-05-05T03:39:40.174Z,46.03
2023-05-05T03:42:08.645Z,45.87
2023-05-05T03:44:36.696Z,45.71
2023-05-05T03:47:03.903Z,45.36
2023-05-05T03:49:33.907Z,45.01
2023-05-05T03:52:01.095Z,45.13
2023-05-05T03:54:28.854Z,44.84
2023-05-05T03:56:56.411Z,45.84
2023-05-05T03:59:23.722Z,46.42
2023-05-05T04:01:51.048Z,47.85
2023-05-05T04:04:18.147Z,47.48
2023-05-05T04:06:45.635Z,46.40
2023-05-05T04:09:14.637Z,46.04
2023-05-05T04:11:43.378Z,45.39
2023-05-05T04:14:11.492Z,45.63
2023-05-05T04:16:38.586Z,45.67
2023-05-05T04:19:05.998Z,45.85
2023-05-05T04:21:33.397Z,47.18
2023-05-05T04:24:01.089Z,47.67
2023-05-05T04:26:28.217Z,48.03
2023-05-05T04:28:56.284Z,46.74
2023-05-05T04:31:23.792Z,47.83
2023-05-05T04:33:51.560Z,48.68
2023-05-05T04:36:19.329Z,47.42
2023-05-05T04:38:47.541Z,47.37
2023-05-05T04:41:14.669Z,47.66
2023-05-05T04:43:43.521Z,47.26
2023-05-05T04:46:10.592Z,46.83
2023-05-05T04:48:38.596Z,46.30
2023-05-05T04:51:07.162Z,47.11
2023-05-05T04:53:34.812Z,47.86
2023-05-05T04:56:02.151Z,48.24
2023-05-05T04:58:29.407Z,48.60
2023-05-05T05:00:56.832Z,48.65
2023-05-05T05:03:24.324Z,48.71
2023-05-05T05:05:52.084Z,48.61
2023-05-05T05:08:19.201Z,48.50
2023-05-05T05:10:46.395Z,48.60
2023-05-05T05:13:13.533Z,48.27
2023-05-05T05:15:40.975Z,47.98
2023-05-05T05:18:08.355Z,48.16
2023-05-05T05:20:35.582Z,48.23
2023-05-05T05:23:02.882Z,48.09
2023-05-05T05:25:31.880Z,47.91
2023-05-05T05:28:09.497Z,47.23
2023-05-05T05:30:43.721Z,47.15
2023-05-05T05:33:11.956Z,46.14
2023-05-05T05:35:39.924Z,45.84
2023-05-05T05:38:07.178Z,45.71
2023-05-05T05:40:34.597Z,44.89
2023-05-05T05:43:03.135Z,43.95
2023-05-05T05:45:30.961Z,43.50
2023-05-05T05:47:58.232Z,43.21
2023-05-05T05:50:28.748Z,42.87
2023-05-05T05:52:58.156Z,42.92
2023-05-05T05:55:25.912Z,43.07
2023-05-05T05:57:54.221Z,43.03
2023-05-05T06:00:21.566Z,41.75
2023-05-05T06:02:56.007Z,41.49
2023-05-05T06:05:27.053Z,41.26
2023-05-05T06:07:54.563Z,40.71
2023-05-05T06:10:30.409Z,40.16
2023-05-05T06:13:02.450Z,39.75
2023-05-05T06:15:31.489Z,39.97
2023-05-05T06:17:59.901Z,40.09
2023-05-05T06:20:27.947Z,40.12
2023-05-05T06:22:56.129Z,39.26
2023-05-05T06:25:23.927Z,38.24
2023-05-05T06:27:52.416Z,37.92
2023-05-05T06:30:19.840Z,38.10
2023-05-05T06:32:46.887Z,38.19
2023-05-05T06:35:14.013Z,36.88
2023-05-05T06:37:41.189Z,37.51
2023-05-05T06:40:09.287Z,36.45
2023-05-05T06:42:36.937Z,35.53
2023-05-05T06:45:08.557Z,35.36
2023-05-05T06:47:36.464Z,35.36
2023-05-05T06:50:04.083Z,35.23
2023-05-05T06:52:31.297Z,34.45
2023-05-05T06:54:58.484Z,34.85
2023-05-05T06:57:25.837Z,34.32
2023-05-05T06:59:54.122Z,34.45
2023-05-05T07:02:21.295Z,34.04
2023-05-05T07:04:48.398Z,33.55
2023-05-05T07:07:15.634Z,32.28
2023-05-05T07:09:42.908Z,31.91
2023-05-05T07:12:10.290Z,31.44
2023-05-05T07:14:37.427Z,32.03
2023-05-05T07:17:04.596Z,32.31
2023-05-05T07:19:32.966Z,33.62
2023-05-05T07:22:00.187Z,34.05
2023-05-05T07:24:27.336Z,34.52
2023-05-05T07:26:54.589Z,35.38
2023-05-05T07:29:21.806Z,35.32
2023-05-05T07:31:48.946Z,35.38
2023-05-05T07:34:16.107Z,35.23
2023-05-05T07:36:43.156Z,33.66
2023-05-05T07:39:10.228Z,32.06
2023-05-05T07:41:37.345Z,33.59
2023-05-05T07:44:04.619Z,33.44
2023-05-05T07:46:31.748Z,34.13
2023-05-05T07:48:59.198Z,32.44
2023-05-05T07:51:26.755Z,31.52
2023-05-05T07:53:53.804Z,32.42
2023-05-05T07:56:21.781Z,32.65
2023-05-05T07:58:49.003Z,33.52
2023-05-05T08:01:16.206Z,35.37
2023-05-05T08:03:43.493Z,34.79
2023-05-05T08:06:10.787Z,32.77
2023-05-05T08:08:38.373Z,32.57
2023-05-05T08:11:06.890Z,33.74
2023-05-05T08:13:34.831Z,33.90
2023-05-05T08:16:02.212Z,34.06
2023-05-05T08:18:30.852Z,33.43
2023-05-05T08:20:58.227Z,33.52
2023-05-05T08:23:25.346Z,33.23
2023-05-05T08:25:52.476Z,33.32
2023-05-05T08:28:19.732Z,34.05
2023-05-05T08:30:47.386Z,33.58
2023-05-05T08:33:14.657Z,33.17
2023-05-05T08:35:43.118Z,33.25
2023-05-05T08:38:12.156Z,33.44
2023-05-05T08:40:40.824Z,32.18
2023-05-05T08:43:08.484Z,32.78
2023-05-05T08:45:36.944Z,33.89
2023-05-05T08:48:05.371Z,33.25
2023-05-05T08:50:33.425Z,32.88
2023-05-05T08:53:12.181Z,34.28
2023-05-05T08:55:51.503Z,31.46
2023-05-05T08:58:19.805Z,34.06
2023-05-05T09:00:48.480Z,32.52
2023-05-05T09:03:16.457Z,33.92
2023-05-05T09:05:44.557Z,33.09
2023-05-05T09:08:11.966Z,33.68
2023-05-05T09:10:42.718Z,34.26
2023-05-05T09:13:09.918Z,34.25
2023-05-05T09:15:39.236Z,33.17
2023-05-05T09:18:09.496Z,32.90
2023-05-05T09:20:38.851Z,33.37
2023-05-05T09:23:13.917Z,32.42
2023-05-05T09:25:43.710Z,33.57
2023-05-05T09:28:12.763Z,33.84
2023-05-05T09:30:42.223Z,32.67
2023-05-05T09:33:10.102Z,31.89
2023-05-05T09:35:54.550Z,31.65
2023-05-05T09:38:23.921Z,31.01
2023-05-05T09:40:53.385Z,30.50
2023-05-05T09:43:22.581Z,31.12
2023-05-05T09:45:51.045Z,31.98
2023-05-05T09:48:25.896Z,29.62
2023-05-05T09:50:53.367Z,29.85
2023-05-05T09:53:21.157Z,31.41
2023-05-05T09:55:56.263Z,29.12
2023-05-05T09:58:26.154Z,30.99
2023-05-05T10:00:54.524Z,31.24
2023-05-05T10:03:22.229Z,31.72
2023-05-05T10:05:58.112Z,31.03
2023-05-05T10:08:27.890Z,30.21
2023-05-05T10:10:58.466Z,29.33
2023-05-05T10:13:25.788Z,29.92
2023-05-05T10:15:55.430Z,29.46
2023-05-05T10:18:25.520Z,29.37
2023-05-05T10:21:01.842Z,28.40
2023-05-05T10:23:47.506Z,28.24
2023-05-05T10:26:16.979Z,29.36
2023-05-05T10:28:51.092Z,27.97
2023-05-05T10:31:26.472Z,27.25
2023-05-05T10:33:59.871Z,27.80
2023-05-05T10:36:29.447Z,29.95
2023-05-05T10:38:57.915Z,30.35
2023-05-05T10:41:26.766Z,30.59
2023-05-05T10:43:57.481Z,27.58
2023-05-05T10:46:27.515Z,28.13
2023-05-05T10:49:03.034Z,29.94
2023-05-05T10:52:21.215Z,30.50
2023-05-05T10:55:09.668Z,29.90
2023-05-05T10:57:40.679Z,28.57
2023-05-05T11:00:09.555Z,29.20
2023-05-05T11:02:37.595Z,28.88
2023-05-05T11:05:13.475Z,28.98
2023-05-05T11:07:43.538Z,28.53
2023-05-05T11:10:13.282Z,28.53
2023-05-05T11:12:58.016Z,27.97
2023-05-05T11:15:31.484Z,27.67
2023-05-05T11:18:05.771Z,27.06
2023-05-05T11:20:40.255Z,26.58
2023-05-05T11:23:07.737Z,28.03
2023-05-05T11:25:42.249Z,27.69
2023-05-05T11:28:09.646Z,27.87
2023-05-05T11:30:57.935Z,27.21
2023-05-05T11:33:40.957Z,26.89
2023-05-05T11:36:19.596Z,26.61
2023-05-05T11:39:12.296Z,25.91
2023-05-05T11:41:57.226Z,26.06
2023-05-05T11:44:34.676Z,25.98
2023-05-05T11:47:05.277Z,25.64
2023-05-05T11:49:37.200Z,26.12
2023-05-05T11:52:07.205Z,26.21
2023-05-05T11:54:48.793Z,26.53
2023-05-05T11:57:28.159Z,26.02
2023-05-05T12:00:02.110Z,26.00
2023-05-05T12:02:41.087Z,27.18
2023-05-05T12:05:08.994Z,27.47
2023-05-05T12:07:37.283Z,27.28
2023-05-05T12:10:05.850Z,26.55
2023-05-05T12:12:38.552Z,26.81
2023-05-05T12:15:08.012Z,27.41
2023-05-05T12:17:46.043Z,28.59
2023-05-05T12:20:13.898Z,28.09
2023-05-05T12:22:41.247Z,27.66
2023-05-05T12:25:09.612Z,27.32
2023-05-05T12:27:37.279Z,27.18
2023-05-05T12:30:13.571Z,26.78
2023-05-05T12:32:41.599Z,26.68
2023-05-05T12:35:10.145Z,26.30
2023-05-05T12:37:38.080Z,26.54
2023-05-05T12:40:06.673Z,26.95
2023-05-05T12:42:39.393Z,25.75
2023-05-05T12:45:16.174Z,25.13
2023-05-05T12:47:44.948Z,25.99
2023-05-05T12:50:12.373Z,25.10
2023-05-05T12:52:45.090Z,24.95
2023-05-05T12:55:13.005Z,25.74
2023-05-05T12:58:00.557Z,25.70
2023-05-05T13:00:30.540Z,25.55
2023-05-05T13:02:58.179Z,26.26
2023-05-05T13:05:41.169Z,27.26
2023-05-05T13:08:08.331Z,27.63
2023-05-05T13:10:36.347Z,27.60
2023-05-05T13:13:05.049Z,27.01
2023-05-05T13:15:37.540Z,27.43
2023-05-05T13:18:06.285Z,27.40
2023-05-05T13:20:33.589Z,27.14
2023-05-05T13:23:00.806Z,26.83
2023-05-05T13:25:27.917Z,27.21
2023-05-05T13:27:55.207Z,27.02
2023-05-05T13:30:22.495Z,26.87
2023-05-05T13:32:49.839Z,27.07
2023-05-05T13:35:17.336Z,26.93
2023-05-05T13:37:46.152Z,27.16
2023-05-05T13:40:14.109Z,26.64
2023-05-05T13:42:41.288Z,26.44
2023-05-05T13:45:09.155Z,26.34
2023-05-05T13:47:36.879Z,26.32
2023-05-05T13:50:05.402Z,26.22
2023-05-05T13:52:33.459Z,26.47
2023-05-05T13:55:01.194Z,26.27
2023-05-05T13:57:31.693Z,26.14
2023-05-05T13:59:58.900Z,25.96
2023-05-05T14:02:26.565Z,26.04
2023-05-05T14:04:53.782Z,26.30
2023-05-05T14:07:21.863Z,26.01
2023-05-05T14:09:49.090Z,25.67
2023-05-05T14:12:16.419Z,25.52
2023-05-05T14:14:43.563Z,25.65
2023-05-05T14:17:11.304Z,25.32
2023-05-05T14:19:38.456Z,25.78
2023-05-05T14:22:05.988Z,25.36
2023-05-05T14:24:33.115Z,25.96
2023-05-05T14:27:00.366Z,25.59
2023-05-05T14:29:27.537Z,25.55
2023-05-05T14:31:54.689Z,25.53
2023-05-05T14:34:22.057Z,25.57
2023-05-05T14:36:49.248Z,25.66
2023-05-05T14:39:17.641Z,25.67
2023-05-05T14:41:44.977Z,25.61
2023-05-05T14:44:12.245Z,25.51
2023-05-05T14:46:39.658Z,25.40
2023-05-05T14:49:06.792Z,25.50
2023-05-05T14:51:34.033Z,24.83
2023-05-05T14:54:01.229Z,25.08
2023-05-05T14:56:28.783Z,25.30
2023-05-05T14:58:55.951Z,26.29
2023-05-05T15:01:25.088Z,26.09
2023-05-05T15:03:54.269Z,25.94
2023-05-05T15:06:21.672Z,25.70
2023-05-05T15:08:49.010Z,25.88
2023-05-05T15:11:16.111Z,25.57
2023-05-05T15:13:43.497Z,26.36
2023-05-05T15:16:10.636Z,26.47
2023-05-05T15:18:38.499Z,26.17
2023-05-05T15:21:05.856Z,26.77
2023-05-05T15:23:33.178Z,26.45
2023-05-05T15:26:00.550Z,26.60
2023-05-05T15:28:27.852Z,26.29
2023-05-05T15:30:55.016Z,25.58
2023-05-05T15:33:22.162Z,25.24
2023-05-05T15:35:49.353Z,25.85
2023-05-05T15:38:16.424Z,25.77
2023-05-05T15:40:44.900Z,26.15
2023-05-05T15:43:12.736Z,25.79
2023-05-05T15:45:41.575Z,25.73
2023-05-05T15:48:08.873Z,25.69
2023-05-05T15:50:36.173Z,25.52
2023-05-05T15:53:03.229Z,26.07
2023-05-05T15:55:30.694Z,25.58
2023-05-05T15:57:57.842Z,25.93
2023-05-05T16:00:25.869Z,26.15
2023-05-05T16:02:53.060Z,26.53
2023-05-05T16:05:22.800Z,26.18
2023-05-05T16:07:53.819Z,26.45
2023-05-05T16:10:23.794Z,26.66
2023-05-05T16:12:52.209Z,27.04
2023-05-05T16:15:20.001Z,26.87
2023-05-05T16:17:47.756Z,27.28
2023-05-05T16:20:14.943Z,27.31
2023-05-05T16:22:42.137Z,27.61
2023-05-05T16:25:09.949Z,27.69
2023-05-05T16:27:37.490Z,28.35
2023-05-05T16:30:13.069Z,27.93
2023-05-05T16:32:40.369Z,28.43
2023-05-05T16:35:09.474Z,28.10
2023-05-05T16:37:36.788Z,28.38
2023-05-05T16:40:09.901Z,28.52
2023-05-05T16:42:37.356Z,28.67
2023-05-05T16:45:04.904Z,28.78
2023-05-05T16:47:32.148Z,28.63
2023-05-05T16:49:59.455Z,28.73
2023-05-05T16:52:26.913Z,28.78
2023-05-05T16:54:56.691Z,28.52
2023-05-05T16:57:27.233Z,28.47
2023-05-05T16:59:56.524Z,27.84
2023-05-05T17:02:23.740Z,28.60
2023-05-05T17:04:51.107Z,28.53
2023-05-05T17:07:18.165Z,28.67
2023-05-05T17:09:45.260Z,28.87
2023-05-05T17:12:12.439Z,29.00
2023-05-05T17:14:39.956Z,29.05
2023-05-05T17:17:07.152Z,28.92
2023-05-05T17:19:34.512Z,28.91
2023-05-05T17:22:01.623Z,28.96
2023-05-05T17:24:28.706Z,28.98
2023-05-05T17:26:56.164Z,28.96
2023-05-05T17:29:23.453Z,29.16
2023-05-05T17:31:50.906Z,29.21
2023-05-05T17:34:18.164Z,29.08
2023-05-05T17:36:45.277Z,29.18
2023-05-05T17:39:12.334Z,29.30
2023-05-05T17:41:42.631Z,29.28
2023-05-05T17:44:09.865Z,29.50
2023-05-05T17:46:37.542Z,29.69
2023-05-05T17:49:05.169Z,29.83
2023-05-05T17:51:32.385Z,29.89
2023-05-05T17:53:59.535Z,29.74
2023-05-05T17:56:26.868Z,29.98
2023-05-05T17:58:54.000Z,29.96
2023-05-05T18:01:22.886Z,30.22
2023-05-05T18:03:50.203Z,30.22
2023-05-05T18:06:17.924Z,30.18
2023-05-05T18:08:45.064Z,30.07
2023-05-05T18:11:12.208Z,30.14
2023-05-05T18:13:39.721Z,30.19
2023-05-05T18:16:07.285Z,30.56
2023-05-05T18:18:34.723Z,31.24
2023-05-05T18:21:01.862Z,31.41
2023-05-05T18:23:29.108Z,31.77
2023-05-05T18:25:56.343Z,31.47
2023-05-05T18:28:23.985Z,31.48
2023-05-05T18:30:51.309Z,31.56
2023-05-05T18:33:18.640Z,31.77
2023-05-05T18:35:46.033Z,31.68
2023-05-05T18:38:16.745Z,31.84
2023-05-05T18:40:45.440Z,31.77
2023-05-05T18:43:12.669Z,31.79
2023-05-05T18:45:40.001Z,31.73
2023-05-05T18:48:07.376Z,32.05
2023-05-05T18:50:34.673Z,31.90
2023-05-05T18:53:02.010Z,31.89
2023-05-05T18:55:29.131Z,32.01
2023-05-05T18:57:59.931Z,32.17
2023-05-05T19:00:27.517Z,32.18
2023-05-05T19:02:54.775Z,32.30
2023-05-05T19:05:22.420Z,32.36
2023-05-05T19:07:49.570Z,32.39
2023-05-05T19:10:16.650Z,32.29
2023-05-05T19:12:43.778Z,32.47
2023-05-05T19:15:11.712Z,32.48
2023-05-05T19:17:39.217Z,32.55
2023-05-05T19:20:06.852Z,32.75
2023-05-05T19:22:34.058Z,32.80
2023-05-05T19:25:01.249Z,32.80
2023-05-05T19:27:33.891Z,33.04
2023-05-05T19:30:01.332Z,33.25
2023-05-05T19:32:32.586Z,32.98
2023-05-05T19:35:00.210Z,33.05
2023-05-05T19:37:28.174Z,32.92
2023-05-05T19:39:56.735Z,32.92
2023-05-05T19:42:24.362Z,32.83
2023-05-05T19:44:51.492Z,32.91
2023-05-05T19:47:18.563Z,32.93
2023-05-05T19:49:45.776Z,33.18
2023-05-05T19:52:13.130Z,33.43
2023-05-05T19:54:40.400Z,33.53
2023-05-05T19:57:07.658Z,33.55
2023-05-05T19:59:34.911Z,33.64
2023-05-05T20:02:02.178Z,33.63
2023-05-05T20:04:29.254Z,33.42
2023-05-05T20:06:57.394Z,33.37
2023-05-05T20:09:24.525Z,33.35
2023-05-05T20:11:51.956Z,33.30
2023-05-05T20:14:19.310Z,33.38
2023-05-05T20:16:46.811Z,33.38
2023-05-05T20:19:14.232Z,33.37
2023-05-05T20:21:41.401Z,33.27
2023-05-05T20:24:09.030Z,33.38
2023-05-05T20:26:36.871Z,33.80
2023-05-05T20:29:04.217Z,33.83
2023-05-05T20:31:31.508Z,33.61
2023-05-05T20:33:58.994Z,34.25
2023-05-05T20:36:26.748Z,34.15
2023-05-05T20:38:54.146Z,34.08
2023-05-05T20:41:22.387Z,34.35
2023-05-05T20:43:49.624Z,34.34
2023-05-05T20:46:16.798Z,34.41
2023-05-05T20:48:44.629Z,34.52
2023-05-05T20:51:12.566Z,34.38
2023-05-05T20:53:40.275Z,34.68
2023-05-05T20:56:08.774Z,34.69
2023-05-05T20:58:36.824Z,34.93
2023-05-05T21:01:04.146Z,34.77
2023-05-05T21:03:31.317Z,35.03
2023-05-05T21:05:58.504Z,34.95
2023-05-05T21:08:25.904Z,34.87
2023-05-05T21:10:53.317Z,34.87
2023-05-05T21:13:20.658Z,34.87
2023-05-05T21:15:50.517Z,34.97
2023-05-05T21:18:17.991Z,34.98
2023-05-05T21:20:45.261Z,35.03
2023-05-05T21:23:12.462Z,35.06
2023-05-05T21:25:39.706Z,35.00
2023-05-05T21:28:07.162Z,35.03
2023-05-05T21:30:34.282Z,35.17
2023-05-05T21:33:01.503Z,35.23
2023-05-05T21:35:29.005Z,35.14
2023-05-05T21:37:56.179Z,35.10
2023-05-05T21:40:23.267Z,35.35
2023-05-05T21:42:50.621Z,35.17
2023-05-05T21:45:17.709Z,35.47
2023-05-05T21:47:44.965Z,35.38
2023-05-05T21:50:12.571Z,35.20
2023-05-05T21:52:40.082Z,35.11
2023-05-05T21:55:07.768Z,35.49
2023-05-05T21:57:34.877Z,35.44
2023-05-05T22:00:02.264Z,35.62
2023-05-05T22:02:40.427Z,35.78
2023-05-05T22:05:08.412Z,35.82
2023-05-05T22:07:35.665Z,35.74
2023-05-05T22:10:03.937Z,35.78
2023-05-05T22:12:33.176Z,35.41
2023-05-05T22:15:00.445Z,35.78
2023-05-05T22:17:27.636Z,35.96
2023-05-05T22:19:54.877Z,35.97
2023-05-05T22:22:22.311Z,35.92
2023-05-05T22:24:49.552Z,35.89
2023-05-05T22:27:16.938Z,35.92
2023-05-05T22:29:44.250Z,35.88
2023-05-05T22:32:11.637Z,35.95
2023-05-05T22:34:39.081Z,36.08
2023-05-05T22:37:06.279Z,36.05
2023-05-05T22:39:33.658Z,35.98
2023-05-05T22:42:02.035Z,36.34
2023-05-05T22:44:29.812Z,35.98
2023-05-05T22:46:57.071Z,36.21
2023-05-05T22:49:24.282Z,36.22
2023-05-05T22:51:52.070Z,35.84
2023-05-05T22:54:19.636Z,36.04
2023-05-05T22:56:47.399Z,35.88
2023-05-05T22:59:15.058Z,35.93
2023-05-05T23:01:42.654Z,36.09
2023-05-05T23:04:10.171Z,36.14
2023-05-05T23:06:37.567Z,35.95
2023-05-05T23:09:04.797Z,36.02
2023-05-05T23:11:32.061Z,36.20
2023-05-05T23:13:59.384Z,36.60
2023-05-05T23:16:26.561Z,36.69
2023-05-05T23:18:53.966Z,36.56
2023-05-05T23:21:21.405Z,36.62
2023-05-05T23:23:49.426Z,36.88
2023-05-05T23:26:16.716Z,36.97
2023-05-05T23:28:44.023Z,37.06
2023-05-05T23:31:11.320Z,37.21
2023-05-05T23:33:38.739Z,37.10
2023-05-05T23:36:06.136Z,37.14
2023-05-05T23:38:33.550Z,37.22
2023-05-05T23:41:00.870Z,36.66
2023-05-05T23:43:28.263Z,37.18
2023-05-05T23:45:55.908Z,37.34
2023-05-05T23:48:23.311Z,37.41
2023-05-05T23:50:50.654Z,37.56
2023-05-05T23:53:17.937Z,37.35
2023-05-05T23:55:45.395Z,37.54
2023-05-05T23:58:12.697Z,37.42
